Aimores, Brazil
Current Conditions -  °F | °C
As of 12:20 PM on Thursday 30 Oct 2014 (Local Time) from SBVT Reporting Station
Broken Clouds Broken Clouds  
Wind Chill: 75°   Ceiling: 2500
Heat Index: 75°   Visibility: 6mi
Dew Point: 68°   Wind: 14mph
Humidity: 78%   Direction: 50°NE
Pressure: 29.97"   Gusts: NA
Location:  19.5°S, 41.07°W
Report Text: SBVT 301420Z 05012KT 9999 FEW008 BKN025 BKN070 24/20 Q1015
Loading
Personal Weather Stations






























Interactive Weather Map
Tropical Storm Tracking
New forecast layout! Learn more

10-Day Weather Forecast

Advertisements
Track Severe Weather on mobile